sensor_id;sensor_type;location;lat;lon;timestamp;pressure;altitude;pressure_sealevel;temperature;humidity
38852;BME280;24605;50.092;9.182;2024-03-02T00:01:27;153198.47;;;4.51;100.00
38852;BME280;24605;50.092;9.182;2024-03-02T00:03:54;153195.84;;;4.50;100.00
38852;BME280;24605;50.092;9.182;2024-03-02T00:06:21;153189.38;;;4.47;100.00
38852;BME280;24605;50.092;9.182;2024-03-02T00:08:49;153151.75;;;4.32;100.00
38852;BME280;24605;50.092;9.182;2024-03-02T00:11:15;153236.09;;;4.66;100.00
38852;BME280;24605;50.092;9.182;2024-03-02T00:13:43;153255.53;;;4.74;100.00
38852;BME280;24605;50.092;9.182;2024-03-02T00:16:11;153182.91;;;4.45;100.00
38852;BME280;24605;50.092;9.182;2024-03-02T00:18:38;153155.63;;;4.34;100.00
38852;BME280;24605;50.092;9.182;2024-03-02T00:21:05;153147.88;;;4.31;100.00
38852;BME280;24605;50.092;9.182;2024-03-02T00:23:34;153185.44;;;4.46;100.00
38852;BME280;24605;50.092;9.182;2024-03-02T00:26:03;153172.50;;;4.41;100.00
38852;BME280;24605;50.092;9.182;2024-03-02T00:28:32;153168.63;;;4.39;100.00
38852;BME280;24605;50.092;9.182;2024-03-02T00:31:02;153162.09;;;4.36;100.00
38852;BME280;24605;50.092;9.182;2024-03-02T00:33:31;153114.09;;;4.17;100.00
38852;BME280;24605;50.092;9.182;2024-03-02T00:35:58;153080.41;;;4.04;100.00
38852;BME280;24605;50.092;9.182;2024-03-02T00:38:25;153079.06;;;4.03;100.00
38852;BME280;24605;50.092;9.182;2024-03-02T00:40:52;153092.06;;;4.08;100.00
38852;BME280;24605;50.092;9.182;2024-03-02T00:46:22;153142.66;;;4.29;100.00
38852;BME280;24605;50.092;9.182;2024-03-02T00:48:54;153070.00;;;4.00;100.00
38852;BME280;24605;50.092;9.182;2024-03-02T00:51:22;153124.50;;;4.21;100.00
38852;BME280;24605;50.092;9.182;2024-03-02T00:53:49;153095.94;;;4.10;100.00
38852;BME280;24605;50.092;9.182;2024-03-02T00:56:16;153086.88;;;4.06;100.00
38852;BME280;24605;50.092;9.182;2024-03-02T00:58:44;153077.81;;;4.03;100.00
38852;BME280;24605;50.092;9.182;2024-03-02T01:01:10;153034.97;;;3.86;100.00
38852;BME280;24605;50.092;9.182;2024-03-02T01:03:37;153047.97;;;3.91;100.00
38852;BME280;24605;50.092;9.182;2024-03-02T01:06:04;153040.19;;;3.88;100.00
38852;BME280;24605;50.092;9.182;2024-03-02T01:08:32;153016.81;;;3.79;100.00
38852;BME280;24605;50.092;9.182;2024-03-02T01:10:59;153009.03;;;3.75;100.00
38852;BME280;24605;50.092;9.182;2024-03-02T01:13:25;152992.19;;;3.69;100.00
38852;BME280;24605;50.092;9.182;2024-03-02T01:15:53;152987.00;;;3.67;100.00
38852;BME280;24605;50.092;9.182;2024-03-02T01:18:20;152996.09;;;3.70;100.00
38852;BME280;24605;50.092;9.182;2024-03-02T01:20:48;153007.75;;;3.75;100.00
38852;BME280;24605;50.092;9.182;2024-03-02T01:23:17;152971.47;;;3.60;100.00
38852;BME280;24605;50.092;9.182;2024-03-02T01:25:43;152985.69;;;3.66;100.00
38852;BME280;24605;50.092;9.182;2024-03-02T01:28:09;153019.44;;;3.80;100.00
38852;BME280;24605;50.092;9.182;2024-03-02T01:30:36;153033.69;;;3.85;100.00
38852;BME280;24605;50.092;9.182;2024-03-02T01:33:04;153016.81;;;3.79;100.00
38852;BME280;24605;50.092;9.182;2024-03-02T01:35:31;153010.34;;;3.76;100.00
38852;BME280;24605;50.092;9.182;2024-03-02T01:37:58;152989.59;;;3.68;100.00
38852;BME280;24605;50.092;9.182;2024-03-02T01:40:24;152948.13;;;3.51;100.00
38852;BME280;24605;50.092;9.182;2024-03-02T01:42:52;152950.72;;;3.52;100.00
38852;BME280;24605;50.092;9.182;2024-03-02T01:45:19;152987.00;;;3.67;100.00
38852;BME280;24605;50.092;9.182;2024-03-02T01:47:46;152999.94;;;3.72;100.00
38852;BME280;24605;50.092;9.182;2024-03-02T01:50:15;152980.53;;;3.64;100.00
38852;BME280;24605;50.092;9.182;2024-03-02T01:52:42;152968.84;;;3.59;100.00
38852;BME280;24605;50.092;9.182;2024-03-02T01:55:10;152941.59;;;3.49;100.00
38852;BME280;24605;50.092;9.182;2024-03-02T01:57:36;152979.22;;;3.64;100.00
38852;BME280;24605;50.092;9.182;2024-03-02T02:00:03;152929.91;;;3.44;100.00
38852;BME280;24605;50.092;9.182;2024-03-02T02:02:30;152902.72;;;3.33;100.00
38852;BME280;24605;50.092;9.182;2024-03-02T02:04:57;152880.69;;;3.24;100.00
38852;BME280;24605;50.092;9.182;2024-03-02T02:07:25;152857.34;;;3.15;100.00
38852;BME280;24605;50.092;9.182;2024-03-02T02:09:51;152852.16;;;3.13;100.00
38852;BME280;24605;50.092;9.182;2024-03-02T02:12:18;152880.69;;;3.24;100.00
38852;BME280;24605;50.092;9.182;2024-03-02T02:14:47;152836.63;;;3.07;100.00
38852;BME280;24605;50.092;9.182;2024-03-02T02:17:14;152854.75;;;3.14;100.00
38852;BME280;24605;50.092;9.182;2024-03-02T02:19:40;152831.41;;;3.05;100.00
38852;BME280;24605;50.092;9.182;2024-03-02T02:22:08;152839.22;;;3.08;100.00
38852;BME280;24605;50.092;9.182;2024-03-02T02:24:34;152856.03;;;3.14;100.00
38852;BME280;24605;50.092;9.182;2024-03-02T02:27:01;152878.09;;;3.23;100.00
38852;BME280;24605;50.092;9.182;2024-03-02T02:29:27;152834.03;;;3.06;100.00
38852;BME280;24605;50.092;9.182;2024-03-02T02:31:54;152810.69;;;2.96;100.00
38852;BME280;24605;50.092;9.182;2024-03-02T02:34:20;152870.31;;;3.20;100.00
38852;BME280;24605;50.092;9.182;2024-03-02T02:36:47;152836.63;;;3.07;100.00
38852;BME280;24605;50.092;9.182;2024-03-02T02:39:16;152810.69;;;2.96;100.00
38852;BME280;24605;50.092;9.182;2024-03-02T02:41:44;152865.09;;;3.18;100.00
38852;BME280;24605;50.092;9.182;2024-03-02T02:44:11;152858.63;;;3.16;100.00
38852;BME280;24605;50.092;9.182;2024-03-02T02:46:38;152846.97;;;3.11;100.00
38852;BME280;24605;50.092;9.182;2024-03-02T02:49:04;152856.03;;;3.14;100.00
38852;BME280;24605;50.092;9.182;2024-03-02T02:51:31;152872.91;;;3.21;100.00
38852;BME280;24605;50.092;9.182;2024-03-02T02:53:57;152911.78;;;3.37;100.00
38852;BME280;24605;50.092;9.182;2024-03-02T02:56:25;152896.22;;;3.31;100.00
38852;BME280;24605;50.092;9.182;2024-03-02T02:58:51;152892.38;;;3.29;100.00
38852;BME280;24605;50.092;9.182;2024-03-02T03:01:18;152846.97;;;3.11;100.00
38852;BME280;24605;50.092;9.182;2024-03-02T03:03:45;152913.09;;;3.37;100.00
38852;BME280;24605;50.092;9.182;2024-03-02T03:06:12;152904.03;;;3.34;100.00
38852;BME280;24605;50.092;9.182;2024-03-02T03:08:38;152872.91;;;3.21;100.00
38852;BME280;24605;50.092;9.182;2024-03-02T03:11:05;152939.03;;;3.48;100.00
38852;BME280;24605;50.092;9.182;2024-03-02T03:13:34;152919.56;;;3.40;100.00
38852;BME280;24605;50.092;9.182;2024-03-02T03:16:00;152922.19;;;3.41;100.00
38852;BME280;24605;50.092;9.182;2024-03-02T03:18:27;152919.56;;;3.40;100.00
38852;BME280;24605;50.092;9.182;2024-03-02T03:20:53;152910.50;;;3.36;100.00
38852;BME280;24605;50.092;9.182;2024-03-02T03:23:20;152904.03;;;3.34;100.00
38852;BME280;24605;50.092;9.182;2024-03-02T03:25:46;152888.44;;;3.27;100.00
38852;BME280;24605;50.092;9.182;2024-03-02T03:28:13;152913.09;;;3.37;100.00
38852;BME280;24605;50.092;9.182;2024-03-02T03:30:40;152911.78;;;3.37;100.00
38852;BME280;24605;50.092;9.182;2024-03-02T03:33:07;152885.84;;;3.26;100.00
38852;BME280;24605;50.092;9.182;2024-03-02T03:35:34;152888.44;;;3.27;100.00
38852;BME280;24605;50.092;9.182;2024-03-02T03:38:00;152896.22;;;3.31;100.00
38852;BME280;24605;50.092;9.182;2024-03-02T03:40:27;152911.78;;;3.37;100.00
38852;BME280;24605;50.092;9.182;2024-03-02T03:42:53;152870.31;;;3.20;100.00
38852;BME280;24605;50.092;9.182;2024-03-02T03:45:21;152857.34;;;3.15;100.00
38852;BME280;24605;50.092;9.182;2024-03-02T03:47:51;152846.97;;;3.11;100.00
38852;BME280;24605;50.092;9.182;2024-03-02T03:50:18;152823.63;;;3.02;100.00
38852;BME280;24605;50.092;9.182;2024-03-02T03:52:45;152806.81;;;2.95;100.00
38852;BME280;24605;50.092;9.182;2024-03-02T03:55:11;152821.03;;;3.01;100.00
38852;BME280;24605;50.092;9.182;2024-03-02T03:57:38;152824.97;;;3.02;100.00
38852;BME280;24605;50.092;9.182;2024-03-02T04:00:06;152892.38;;;3.29;100.00
38852;BME280;24605;50.092;9.182;2024-03-02T04:02:35;152850.88;;;3.12;100.00
38852;BME280;24605;50.092;9.182;2024-03-02T04:05:03;152712.19;;;2.57;100.00
38852;BME280;24605;50.092;9.182;2024-03-02T04:07:34;152900.09;;;3.32;100.00
38852;BME280;24605;50.092;9.182;2024-03-02T04:10:06;152879.38;;;3.24;100.00
38852;BME280;24605;50.092;9.182;2024-03-02T04:12:34;152875.50;;;3.22;100.00
38852;BME280;24605;50.092;9.182;2024-03-02T04:15:00;152872.91;;;3.21;100.00
38852;BME280;24605;50.092;9.182;2024-03-02T04:17:29;152767.91;;;2.79;100.00
38852;BME280;24605;50.092;9.182;2024-03-02T04:19:57;152828.81;;;3.04;100.00
38852;BME280;24605;50.092;9.182;2024-03-02T04:22:25;152814.56;;;2.98;100.00
38852;BME280;24605;50.092;9.182;2024-03-02T04:24:51;152861.22;;;3.17;100.00
38852;BME280;24605;50.092;9.182;2024-03-02T04:27:18;152784.75;;;2.86;100.00
38852;BME280;24605;50.092;9.182;2024-03-02T04:29:44;152796.41;;;2.91;100.00
38852;BME280;24605;50.092;9.182;2024-03-02T04:32:11;152766.63;;;2.79;100.00
38852;BME280;24605;50.092;9.182;2024-03-02T04:34:37;152764.03;;;2.78;100.00
38852;BME280;24605;50.092;9.182;2024-03-02T04:37:04;152770.50;;;2.80;100.00
38852;BME280;24605;50.092;9.182;2024-03-02T04:39:31;152769.22;;;2.80;100.00
38852;BME280;24605;50.092;9.182;2024-03-02T04:41:58;152796.41;;;2.91;100.00
38852;BME280;24605;50.092;9.182;2024-03-02T04:44:24;152765.31;;;2.78;100.00
38852;BME280;24605;50.092;9.182;2024-03-02T04:46:51;152769.22;;;2.80;100.00
38852;BME280;24605;50.092;9.182;2024-03-02T04:49:17;152692.78;;;2.49;100.00
38852;BME280;24605;50.092;9.182;2024-03-02T04:51:44;152674.66;;;2.42;100.00
38852;BME280;24605;50.092;9.182;2024-03-02T04:54:10;152764.03;;;2.78;100.00
38852;BME280;24605;50.092;9.182;2024-03-02T04:56:40;152736.81;;;2.67;100.00
38852;BME280;24605;50.092;9.182;2024-03-02T04:59:10;152670.72;;;2.41;100.00
38852;BME280;24605;50.092;9.182;2024-03-02T05:01:36;152690.19;;;2.48;100.00
38852;BME280;24605;50.092;9.182;2024-03-02T05:04:03;152673.31;;;2.42;100.00
38852;BME280;24605;50.092;9.182;2024-03-02T05:06:29;152670.72;;;2.41;100.00
38852;BME280;24605;50.092;9.182;2024-03-02T05:08:56;152679.78;;;2.44;100.00
38852;BME280;24605;50.092;9.182;2024-03-02T05:11:23;152683.72;;;2.46;100.00
38852;BME280;24605;50.092;9.182;2024-03-02T05:14:15;152707.03;;;2.55;100.00
38852;BME280;24605;50.092;9.182;2024-03-02T05:16:41;152672.06;;;2.41;100.00
38852;BME280;24605;50.092;9.182;2024-03-02T05:19:08;152761.44;;;2.77;100.00
38852;BME280;24605;50.092;9.182;2024-03-02T05:21:35;152792.56;;;2.89;100.00
38852;BME280;24605;50.092;9.182;2024-03-02T05:24:01;152786.03;;;2.87;100.00
38852;BME280;24605;50.092;9.182;2024-03-02T05:26:28;152795.16;;;2.90;100.00
38852;BME280;24605;50.092;9.182;2024-03-02T05:28:55;152791.22;;;2.89;100.00
38852;BME280;24605;50.092;9.182;2024-03-02T05:31:22;152813.28;;;2.97;100.00
38852;BME280;24605;50.092;9.182;2024-03-02T05:33:49;152776.97;;;2.83;100.00
38852;BME280;24605;50.092;9.182;2024-03-02T05:36:15;152819.75;;;3.00;100.00
38852;BME280;24605;50.092;9.182;2024-03-02T05:38:42;152848.28;;;3.11;100.00
38852;BME280;24605;50.092;9.182;2024-03-02T05:41:08;152884.56;;;3.26;100.00
38852;BME280;24605;50.092;9.182;2024-03-02T05:43:35;152885.84;;;3.26;100.00
38852;BME280;24605;50.092;9.182;2024-03-02T05:46:01;152924.78;;;3.42;100.00
38852;BME280;24605;50.092;9.182;2024-03-02T05:48:29;152904.03;;;3.34;100.00
38852;BME280;24605;50.092;9.182;2024-03-02T05:50:55;152910.50;;;3.36;100.00
38852;BME280;24605;50.092;9.182;2024-03-02T05:53:22;152932.53;;;3.45;100.00
38852;BME280;24605;50.092;9.182;2024-03-02T05:55:49;152929.91;;;3.44;100.00
38852;BME280;24605;50.092;9.182;2024-03-02T05:58:18;152922.19;;;3.41;100.00
38852;BME280;24605;50.092;9.182;2024-03-02T06:00:56;152909.19;;;3.36;100.00
38852;BME280;24605;50.092;9.182;2024-03-02T06:03:22;152915.69;;;3.38;100.00
38852;BME280;24605;50.092;9.182;2024-03-02T06:05:50;152952.00;;;3.53;100.00
38852;BME280;24605;50.092;9.182;2024-03-02T06:08:17;152922.19;;;3.41;100.00
38852;BME280;24605;50.092;9.182;2024-03-02T06:10:43;152933.84;;;3.45;100.00
38852;BME280;24605;50.092;9.182;2024-03-02T06:13:11;152911.78;;;3.37;100.00
38852;BME280;24605;50.092;9.182;2024-03-02T06:15:37;152906.63;;;3.35;100.00
38852;BME280;24605;50.092;9.182;2024-03-02T06:18:04;152844.38;;;3.10;100.00
38852;BME280;24605;50.092;9.182;2024-03-02T06:20:32;152844.38;;;3.10;100.00
38852;BME280;24605;50.092;9.182;2024-03-02T06:22:59;152865.09;;;3.18;100.00
38852;BME280;24605;50.092;9.182;2024-03-02T06:25:26;152859.97;;;3.16;100.00
38852;BME280;24605;50.092;9.182;2024-03-02T06:27:53;152874.16;;;3.22;100.00
38852;BME280;24605;50.092;9.182;2024-03-02T06:30:19;152885.84;;;3.26;100.00
38852;BME280;24605;50.092;9.182;2024-03-02T06:32:46;152906.63;;;3.35;100.00
38852;BME280;24605;50.092;9.182;2024-03-02T06:35:12;152922.19;;;3.41;100.00
38852;BME280;24605;50.092;9.182;2024-03-02T06:37:39;152945.53;;;3.50;100.00
38852;BME280;24605;50.092;9.182;2024-03-02T06:40:08;152911.78;;;3.37;100.00
38852;BME280;24605;50.092;9.182;2024-03-02T06:42:35;152983.13;;;3.65;100.00
38852;BME280;24605;50.092;9.182;2024-03-02T06:45:02;152977.94;;;3.63;100.00
38852;BME280;24605;50.092;9.182;2024-03-02T06:47:29;152993.47;;;3.69;100.00
38852;BME280;24605;50.092;9.182;2024-03-02T06:49:55;153010.34;;;3.76;100.00
38852;BME280;24605;50.092;9.182;2024-03-02T06:52:23;153018.09;;;3.79;100.00
38852;BME280;24605;50.092;9.182;2024-03-02T06:54:49;153068.72;;;3.99;100.00
38852;BME280;24605;50.092;9.182;2024-03-02T06:57:17;153059.66;;;3.96;100.00
38852;BME280;24605;50.092;9.182;2024-03-02T06:59:45;153089.47;;;4.07;100.00
38852;BME280;24605;50.092;9.182;2024-03-02T07:02:12;153121.91;;;4.20;100.00
38852;BME280;24605;50.092;9.182;2024-03-02T07:04:38;153149.13;;;4.31;100.00
38852;BME280;24605;50.092;9.182;2024-03-02T07:07:05;153160.81;;;4.36;100.00
38852;BME280;24605;50.092;9.182;2024-03-02T07:09:31;153151.75;;;4.32;100.00
38852;BME280;24605;50.092;9.182;2024-03-02T07:11:58;153175.09;;;4.42;100.00
38852;BME280;24605;50.092;9.182;2024-03-02T07:14:25;153185.44;;;4.46;100.00
38852;BME280;24605;50.092;9.182;2024-03-02T07:17:12;153186.78;;;4.46;100.00
38852;BME280;24605;50.092;9.182;2024-03-02T07:19:38;153204.94;;;4.53;100.00
38852;BME280;24605;50.092;9.182;2024-03-02T07:22:06;153215.34;;;4.58;100.00
38852;BME280;24605;50.092;9.182;2024-03-02T07:24:32;153169.91;;;4.39;100.00
38852;BME280;24605;50.092;9.182;2024-03-02T07:26:59;153236.09;;;4.66;100.00
38852;BME280;24605;50.092;9.182;2024-03-02T07:29:27;153264.63;;;4.77;100.00
38852;BME280;24605;50.092;9.182;2024-03-02T07:31:54;153304.88;;;4.93;100.00
38852;BME280;24605;50.092;9.182;2024-03-02T07:34:20;153324.38;;;5.01;100.00
38852;BME280;24605;50.092;9.182;2024-03-02T07:36:47;153337.31;;;5.06;100.00
38852;BME280;24605;50.092;9.182;2024-03-02T07:39:13;153369.78;;;5.19;100.00
38852;BME280;24605;50.092;9.182;2024-03-02T07:41:40;153378.88;;;5.23;100.00
38852;BME280;24605;50.092;9.182;2024-03-02T07:44:06;153385.34;;;5.25;100.00
38852;BME280;24605;50.092;9.182;2024-03-02T07:46:34;153386.66;;;5.26;100.00
38852;BME280;24605;50.092;9.182;2024-03-02T07:49:01;153399.63;;;5.31;100.00
38852;BME280;24605;50.092;9.182;2024-03-02T07:51:27;153423.00;;;5.40;100.00
38852;BME280;24605;50.092;9.182;2024-03-02T07:53:54;153471.09;;;5.59;100.00
38852;BME280;24605;50.092;9.182;2024-03-02T07:56:20;153477.56;;;5.62;100.00
38852;BME280;24605;50.092;9.182;2024-03-02T07:58:47;153434.69;;;5.45;100.00
38852;BME280;24605;50.092;9.182;2024-03-02T08:01:14;153469.75;;;5.59;100.00
38852;BME280;24605;50.092;9.182;2024-03-02T08:03:42;153506.13;;;5.73;100.00
38852;BME280;24605;50.092;9.182;2024-03-02T08:06:13;153510.03;;;5.75;100.00
38852;BME280;24605;50.092;9.182;2024-03-02T08:08:40;153465.88;;;5.57;100.00
38852;BME280;24605;50.092;9.182;2024-03-02T08:11:06;153532.09;;;5.84;100.00
38852;BME280;24605;50.092;9.182;2024-03-02T08:13:33;153552.88;;;5.92;100.00
38852;BME280;24605;50.092;9.182;2024-03-02T08:15:59;153578.91;;;6.02;100.00
38852;BME280;24605;50.092;9.182;2024-03-02T08:18:26;153601.03;;;6.11;100.00
38852;BME280;24605;50.092;9.182;2024-03-02T08:20:53;153590.63;;;6.07;100.00
38852;BME280;24605;50.092;9.182;2024-03-02T08:23:20;153590.63;;;6.07;100.00
38852;BME280;24605;50.092;9.182;2024-03-02T08:25:47;153621.81;;;6.19;100.00
38852;BME280;24605;50.092;9.182;2024-03-02T08:28:13;153607.53;;;6.14;100.00
38852;BME280;24605;50.092;9.182;2024-03-02T08:30:39;153589.34;;;6.06;100.00
38852;BME280;24605;50.092;9.182;2024-03-02T08:33:06;153632.19;;;6.23;100.00
38852;BME280;24605;50.092;9.182;2024-03-02T08:35:32;153632.19;;;6.23;100.00
38852;BME280;24605;50.092;9.182;2024-03-02T08:38:03;153638.69;;;6.26;100.00
38852;BME280;24605;50.092;9.182;2024-03-02T08:40:29;153666.00;;;6.37;100.00
38852;BME280;24605;50.092;9.182;2024-03-02T08:42:56;153625.69;;;6.21;100.00
38852;BME280;24605;50.092;9.182;2024-03-02T08:45:23;153617.88;;;6.18;100.00
38852;BME280;24605;50.092;9.182;2024-03-02T08:47:49;153556.81;;;5.93;100.00
38852;BME280;24605;50.092;9.182;2024-03-02T08:50:16;153640.00;;;6.26;100.00
38852;BME280;24605;50.092;9.182;2024-03-02T08:52:42;153671.22;;;6.39;100.00
38852;BME280;24605;50.092;9.182;2024-03-02T08:55:10;153672.47;;;6.39;100.00
38852;BME280;24605;50.092;9.182;2024-03-02T08:57:37;153741.34;;;6.67;100.00
38852;BME280;24605;50.092;9.182;2024-03-02T09:00:05;153784.25;;;6.84;100.00
38852;BME280;24605;50.092;9.182;2024-03-02T09:02:32;153805.06;;;6.92;100.00
38852;BME280;24605;50.092;9.182;2024-03-02T09:04:59;153886.97;;;7.25;100.00
38852;BME280;24605;50.092;9.182;2024-03-02T09:07:26;153941.56;;;7.46;100.00
38852;BME280;24605;50.092;9.182;2024-03-02T09:09:52;153961.09;;;7.54;100.00
38852;BME280;24605;50.092;9.182;2024-03-02T09:12:20;153998.84;;;7.69;100.00
38852;BME280;24605;50.092;9.182;2024-03-02T09:14:46;154010.53;;;7.74;100.00
38852;BME280;24605;50.092;9.182;2024-03-02T09:17:13;154048.28;;;7.89;100.00
38852;BME280;24605;50.092;9.182;2024-03-02T09:19:39;154065.16;;;7.95;100.00
38852;BME280;24605;50.092;9.182;2024-03-02T09:22:06;154104.22;;;8.11;100.00
38852;BME280;24605;50.092;9.182;2024-03-02T09:24:32;154128.94;;;8.21;100.00
38852;BME280;24605;50.092;9.182;2024-03-02T09:26:59;154119.81;;;8.17;100.00
38852;BME280;24605;50.092;9.182;2024-03-02T09:29:27;154130.22;;;8.21;100.00
38852;BME280;24605;50.092;9.182;2024-03-02T09:31:54;154186.16;;;8.43;100.00
38852;BME280;24605;50.092;9.182;2024-03-02T09:34:20;154190.09;;;8.45;100.00
38852;BME280;24605;50.092;9.182;2024-03-02T09:36:47;154195.31;;;8.47;100.00
38852;BME280;24605;50.092;9.182;2024-03-02T09:39:14;154248.72;;;8.68;100.00
38852;BME280;24605;50.092;9.182;2024-03-02T09:41:41;154256.50;;;8.71;100.00
38852;BME280;24605;50.092;9.182;2024-03-02T09:44:07;154311.22;;;8.93;100.00
38852;BME280;24605;50.092;9.182;2024-03-02T09:46:35;154363.28;;;9.14;100.00
38852;BME280;24605;50.092;9.182;2024-03-02T09:49:02;154410.16;;;9.32;100.00
38852;BME280;24605;50.092;9.182;2024-03-02T09:51:28;154401.03;;;9.29;100.00
38852;BME280;24605;50.092;9.182;2024-03-02T09:53:55;154421.88;;;9.37;100.00
38852;BME280;24605;50.092;9.182;2024-03-02T09:56:21;154377.59;;;9.19;100.00
38852;BME280;24605;50.092;9.182;2024-03-02T09:58:48;154488.31;;;9.63;100.00
38852;BME280;24605;50.092;9.182;2024-03-02T10:01:15;154539.13;;;9.83;100.00
38852;BME280;24605;50.092;9.182;2024-03-02T10:03:44;154562.56;;;9.93;100.00
38852;BME280;24605;50.092;9.182;2024-03-02T10:06:22;154588.66;;;10.03;100.00
38852;BME280;24605;50.092;9.182;2024-03-02T10:08:49;154600.38;;;10.08;100.00
38852;BME280;24605;50.092;9.182;2024-03-02T10:11:26;154584.69;;;10.01;100.00
38852;BME280;24605;50.092;9.182;2024-03-02T10:14:04;154608.16;;;10.11;100.00
38852;BME280;24605;50.092;9.182;2024-03-02T10:16:33;154602.97;;;10.09;100.00
38852;BME280;24605;50.092;9.182;2024-03-02T10:19:15;154623.84;;;10.17;100.00
38852;BME280;24605;50.092;9.182;2024-03-02T10:21:41;154622.50;;;10.16;100.00
38852;BME280;24605;50.092;9.182;2024-03-02T10:24:08;154626.44;;;10.18;100.00
38852;BME280;24605;50.092;9.182;2024-03-02T10:26:35;154649.84;;;10.27;100.00
38852;BME280;24605;50.092;9.182;2024-03-02T10:29:01;154616.00;;;10.14;99.51
38852;BME280;24605;50.092;9.182;2024-03-02T10:31:28;154662.91;;;10.32;100.00
38852;BME280;24605;50.092;9.182;2024-03-02T10:33:54;154678.59;;;10.39;100.00
38852;BME280;24605;50.092;9.182;2024-03-02T10:36:22;154673.31;;;10.37;97.71
38852;BME280;24605;50.092;9.182;2024-03-02T10:38:51;154616.00;;;10.14;96.67
38852;BME280;24605;50.092;9.182;2024-03-02T10:41:23;154664.19;;;10.33;100.00
38852;BME280;24605;50.092;9.182;2024-03-02T10:43:51;154682.47;;;10.40;98.70
38852;BME280;24605;50.092;9.182;2024-03-02T10:46:20;154694.22;;;10.45;95.94
38852;BME280;24605;50.092;9.182;2024-03-02T10:48:48;154726.84;;;10.58;95.61
38852;BME280;24605;50.092;9.182;2024-03-02T10:51:15;154722.91;;;10.56;95.83
38852;BME280;24605;50.092;9.182;2024-03-02T10:53:43;154735.97;;;10.61;93.25
38852;BME280;24605;50.092;9.182;2024-03-02T10:56:12;154746.38;;;10.65;91.06
38852;BME280;24605;50.092;9.182;2024-03-02T10:58:43;154795.91;;;10.85;90.10
38852;BME280;24605;50.092;9.182;2024-03-02T11:01:11;154805.03;;;10.89;86.81
38852;BME280;24605;50.092;9.182;2024-03-02T11:03:37;154788.09;;;10.82;85.27
38852;BME280;24605;50.092;9.182;2024-03-02T11:06:07;154794.59;;;10.85;85.18
38852;BME280;24605;50.092;9.182;2024-03-02T11:08:37;154822.00;;;10.95;83.84
38852;BME280;24605;50.092;9.182;2024-03-02T11:11:07;154836.34;;;11.01;83.66
38852;BME280;24605;50.092;9.182;2024-03-02T11:13:37;154835.03;;;11.01;81.93
38852;BME280;24605;50.092;9.182;2024-03-02T11:16:11;154859.81;;;11.10;82.94
38852;BME280;24605;50.092;9.182;2024-03-02T11:18:40;154820.69;;;10.95;84.25
38852;BME280;24605;50.092;9.182;2024-03-02T11:21:07;154876.75;;;11.17;82.76
38852;BME280;24605;50.092;9.182;2024-03-02T11:23:35;154906.72;;;11.29;82.20
38852;BME280;24605;50.092;9.182;2024-03-02T11:26:18;154927.59;;;11.37;80.14
38852;BME280;24605;50.092;9.182;2024-03-02T11:28:44;154838.91;;;11.02;78.98
38852;BME280;24605;50.092;9.182;2024-03-02T11:31:11;154926.31;;;11.37;78.47
38852;BME280;24605;50.092;9.182;2024-03-02T11:33:38;154965.44;;;11.52;79.25
38852;BME280;24605;50.092;9.182;2024-03-02T11:36:06;155003.28;;;11.67;80.83
38852;BME280;24605;50.092;9.182;2024-03-02T11:38:34;154974.56;;;11.56;76.56
38852;BME280;24605;50.092;9.182;2024-03-02T11:41:01;155016.28;;;11.72;76.42
38852;BME280;24605;50.092;9.182;2024-03-02T11:43:29;155026.75;;;11.76;72.59
38852;BME280;24605;50.092;9.182;2024-03-02T11:45:57;155042.41;;;11.83;73.45
38852;BME280;24605;50.092;9.182;2024-03-02T11:48:25;155051.53;;;11.86;72.84
38852;BME280;24605;50.092;9.182;2024-03-02T11:50:52;155063.28;;;11.91;72.53
38852;BME280;24605;50.092;9.182;2024-03-02T11:53:21;155089.41;;;12.01;73.74
38852;BME280;24605;50.092;9.182;2024-03-02T11:55:49;155123.38;;;12.15;73.60
38852;BME280;24605;50.092;9.182;2024-03-02T11:58:16;155128.56;;;12.17;66.95
38852;BME280;24605;50.092;9.182;2024-03-02T12:00:44;155136.41;;;12.20;68.53
38852;BME280;24605;50.092;9.182;2024-03-02T12:03:12;155167.75;;;12.32;66.35
38852;BME280;24605;50.092;9.182;2024-03-02T12:05:39;155178.16;;;12.36;64.32
38852;BME280;24605;50.092;9.182;2024-03-02T12:08:06;155210.78;;;12.49;64.23
38852;BME280;24605;50.092;9.182;2024-03-02T12:10:34;155214.75;;;12.51;63.83
38852;BME280;24605;50.092;9.182;2024-03-02T12:13:02;155170.34;;;12.33;64.73
38852;BME280;24605;50.092;9.182;2024-03-02T12:15:30;155186.00;;;12.40;63.66
38852;BME280;24605;50.092;9.182;2024-03-02T12:17:59;155161.19;;;12.30;63.38
38852;BME280;24605;50.092;9.182;2024-03-02T12:20:27;155162.50;;;12.30;64.04
38852;BME280;24605;50.092;9.182;2024-03-02T12:22:57;155221.25;;;12.53;63.71
38852;BME280;24605;50.092;9.182;2024-03-02T12:25:24;155298.28;;;12.84;63.75
38852;BME280;24605;50.092;9.182;2024-03-02T12:27:52;155342.66;;;13.01;63.46
38852;BME280;24605;50.092;9.182;2024-03-02T12:30:20;155368.78;;;13.12;62.26
38852;BME280;24605;50.092;9.182;2024-03-02T12:32:49;155417.09;;;13.31;63.42
38852;BME280;24605;50.092;9.182;2024-03-02T12:35:17;155410.56;;;13.28;62.45
38852;BME280;24605;50.092;9.182;2024-03-02T12:37:44;155343.94;;;13.02;65.25
38852;BME280;24605;50.092;9.182;2024-03-02T12:40:11;155397.47;;;13.23;65.36
38852;BME280;24605;50.092;9.182;2024-03-02T12:42:38;155474.59;;;13.54;66.35
38852;BME280;24605;50.092;9.182;2024-03-02T12:45:05;155456.31;;;13.46;66.19
38852;BME280;24605;50.092;9.182;2024-03-02T12:47:33;155524.25;;;13.73;64.42
38852;BME280;24605;50.092;9.182;2024-03-02T12:50:00;155419.72;;;13.32;66.72
38852;BME280;24605;50.092;9.182;2024-03-02T12:52:28;155464.16;;;13.50;65.45
38852;BME280;24605;50.092;9.182;2024-03-02T12:54:54;155460.25;;;13.48;65.71